Time;durP1;ratioP1;P1;durP2;ratioP2;P2;SDS_P1;SDS_P2;PMS_P1;PMS_P2;Temp;Humidity;BMP_temperature;BMP_pressure;BME280_temperature;BME280_humidity;BME280_pressure;Samples;Min_cycle;Max_cycle;Signal;HPM_P1;HPM_P2
2023/03/14 00:01:37;;;;;;;;;;;22.00;99.90;;;;;;5041159;28;19912;-74
2023/03/14 00:04:06;;;;;;;;;;;22.10;99.90;;;;;;5039498;28;20003;-70
2023/03/14 00:06:33;;;;;;;;;;;22.20;99.90;;;;;;5041699;28;19916;-74
2023/03/14 00:08:59;;;;;;;;;;;22.30;99.90;;;;;;5041079;28;19908;-71
2023/03/14 00:11:26;;;;;;;;;;;22.20;99.90;;;;;;5040114;28;20329;-69
2023/03/14 00:13:53;;;;;;;;;;;22.10;99.90;;;;;;5040504;28;20397;-69
2023/03/14 00:16:20;;;;;;;;;;;21.90;99.90;;;;;;5040077;28;20262;-69
2023/03/14 00:18:46;;;;;;;;;;;21.70;99.90;;;;;;5041663;28;19913;-76
2023/03/14 00:21:13;;;;;;;;;;;21.60;99.90;;;;;;5040624;28;20285;-69
2023/03/14 00:23:40;;;;;;;;;;;21.60;99.90;;;;;;5045485;28;19931;-68
2023/03/14 00:26:11;;;;;;;;;;;21.60;99.90;;;;;;5044514;28;19915;-70
2023/03/14 00:28:38;;;;;;;;;;;21.70;99.90;;;;;;5045264;28;20369;-76
2023/03/14 00:31:08;;;;;;;;;;;21.60;99.90;;;;;;5043956;28;20412;-70
2023/03/14 00:33:35;;;;;;;;;;;21.60;99.90;;;;;;5045162;28;19913;-68
2023/03/14 00:36:04;;;;;;;;;;;21.70;99.90;;;;;;5044068;28;20369;-73
2023/03/14 00:38:31;;;;;;;;;;;21.70;99.90;;;;;;5044579;28;19959;-74
2023/03/14 00:40:57;;;;;;;;;;;21.90;99.90;;;;;;5044627;28;19925;-71
2023/03/14 00:43:24;;;;;;;;;;;21.90;99.90;;;;;;5043228;28;19919;-73
2023/03/14 00:45:51;;;;;;;;;;;21.80;99.90;;;;;;5044576;28;20408;-67
2023/03/14 00:48:19;;;;;;;;;;;21.90;99.90;;;;;;5043257;28;19963;-67
2023/03/14 00:50:46;;;;;;;;;;;21.90;99.90;;;;;;5044739;28;19962;-72
2023/03/14 00:53:13;;;;;;;;;;;21.90;99.90;;;;;;5042989;28;19948;-68
2023/03/14 00:55:42;;;;;;;;;;;21.90;99.90;;;;;;5044772;28;19967;-75
2023/03/14 00:58:09;;;;;;;;;;;21.90;99.90;;;;;;5043598;28;19909;-67
2023/03/14 01:00:36;;;;;;;;;;;21.90;99.90;;;;;;5044112;28;20415;-72
2023/03/14 01:03:03;;;;;;;;;;;21.90;99.90;;;;;;5039218;28;20004;-68
2023/03/14 01:05:30;;;;;;;;;;;22.00;99.90;;;;;;5043409;28;19916;-70
2023/03/14 01:07:56;;;;;;;;;;;22.00;99.90;;;;;;5044645;28;19909;-67
2023/03/14 01:10:23;;;;;;;;;;;22.10;99.90;;;;;;5042700;28;19913;-72
2023/03/14 01:12:50;;;;;;;;;;;22.10;99.90;;;;;;5042939;28;19919;-69
2023/03/14 01:15:16;;;;;;;;;;;22.00;99.90;;;;;;5043144;28;19916;-68
2023/03/14 01:17:43;;;;;;;;;;;22.00;99.90;;;;;;5043327;28;19916;-69
2023/03/14 01:20:11;;;;;;;;;;;22.00;99.90;;;;;;5043004;28;19963;-67
2023/03/14 01:22:39;;;;;;;;;;;22.00;99.90;;;;;;5042787;28;20378;-69
2023/03/14 01:25:07;;;;;;;;;;;22.00;99.90;;;;;;5042780;28;19913;-67
2023/03/14 01:27:33;;;;;;;;;;;22.00;99.90;;;;;;5043154;28;19931;-71
2023/03/14 01:30:00;;;;;;;;;;;22.10;99.90;;;;;;5043666;28;19913;-68
2023/03/14 01:32:27;;;;;;;;;;;22.10;99.90;;;;;;5041291;28;19919;-69
2023/03/14 01:34:53;;;;;;;;;;;22.00;99.90;;;;;;5043092;28;19920;-68
2023/03/14 01:37:20;;;;;;;;;;;22.00;99.90;;;;;;5041049;28;19913;-70
2023/03/14 01:39:47;;;;;;;;;;;22.10;99.90;;;;;;5044183;28;19921;-70
2023/03/14 01:42:14;;;;;;;;;;;22.20;99.90;;;;;;5041007;28;19916;-68
2023/03/14 01:44:57;;;;;;;;;;;22.20;99.90;;;;;;5042223;28;19935;-71
2023/03/14 01:47:24;;;;;;;;;;;22.30;99.90;;;;;;5040068;28;19983;-71
2023/03/14 01:49:59;;;;;;;;;;;22.50;99.90;;;;;;5043534;28;19912;-68
2023/03/14 01:52:33;;;;;;;;;;;22.50;99.90;;;;;;5040136;28;20187;-73
2023/03/14 01:55:03;;;;;;;;;;;22.60;99.90;;;;;;5043372;28;19947;-70
2023/03/14 01:57:35;;;;;;;;;;;22.90;99.90;;;;;;5041150;28;19959;-71
2023/03/14 02:00:13;;;;;;;;;;;23.20;99.90;;;;;;5043206;28;20350;-71
2023/03/14 02:02:51;;;;;;;;;;;23.40;99.90;;;;;;5041742;28;19913;-71
2023/03/14 02:05:20;;;;;;;;;;;23.40;99.90;;;;;;5042740;28;19967;-69
2023/03/14 02:07:49;;;;;;;;;;;23.70;99.90;;;;;;5041456;28;20282;-69
2023/03/14 02:10:18;;;;;;;;;;;23.90;99.90;;;;;;5042350;28;19916;-70
2023/03/14 02:12:45;;;;;;;;;;;24.10;99.90;;;;;;5041743;28;19908;-69
2023/03/14 02:15:12;;;;;;;;;;;24.20;99.90;;;;;;5042517;28;19924;-69
2023/03/14 02:17:41;;;;;;;;;;;24.50;99.90;;;;;;5042600;28;19912;-67
2023/03/14 02:20:08;;;;;;;;;;;24.80;99.90;;;;;;5042813;28;19913;-70
2023/03/14 02:22:36;;;;;;;;;;;24.80;99.90;;;;;;5040869;28;19912;-71
2023/03/14 02:25:06;;;;;;;;;;;24.90;99.90;;;;;;5042914;28;19948;-68
2023/03/14 02:27:33;;;;;;;;;;;24.70;99.90;;;;;;5040602;28;19913;-68
2023/03/14 02:30:05;;;;;;;;;;;24.80;99.90;;;;;;5042861;28;19917;-70
2023/03/14 02:32:33;;;;;;;;;;;24.90;99.90;;;;;;5039868;28;20084;-72
2023/03/14 02:35:02;;;;;;;;;;;25.00;99.90;;;;;;5042557;28;20066;-71
2023/03/14 02:37:48;;;;;;;;;;;24.70;99.90;;;;;;5041155;28;19913;-69
2023/03/14 02:40:15;;;;;;;;;;;24.70;99.90;;;;;;5042170;28;20377;-69
2023/03/14 02:42:42;;;;;;;;;;;24.90;99.90;;;;;;5040303;28;19917;-70
2023/03/14 02:45:08;;;;;;;;;;;24.90;99.90;;;;;;5042648;28;19909;-71
2023/03/14 02:47:38;;;;;;;;;;;24.80;99.90;;;;;;5040334;28;19916;-72
2023/03/14 02:50:12;;;;;;;;;;;24.60;99.90;;;;;;5042640;28;20381;-69
2023/03/14 02:52:39;;;;;;;;;;;24.30;99.90;;;;;;5040392;28;19920;-69
2023/03/14 02:55:06;;;;;;;;;;;24.00;99.90;;;;;;5042423;28;19963;-70
2023/03/14 02:57:32;;;;;;;;;;;23.80;99.90;;;;;;5039213;28;19909;-70
2023/03/14 02:59:59;;;;;;;;;;;23.80;99.90;;;;;;5042655;28;19912;-69
2023/03/14 03:02:27;;;;;;;;;;;23.50;99.90;;;;;;5039817;28;20408;-70
2023/03/14 03:04:53;;;;;;;;;;;23.50;99.90;;;;;;5040514;28;20007;-69
2023/03/14 03:07:20;;;;;;;;;;;23.50;99.90;;;;;;5041953;28;20070;-69
2023/03/14 03:09:47;;;;;;;;;;;23.80;99.90;;;;;;5040469;28;20361;-70
2023/03/14 03:12:14;;;;;;;;;;;24.10;99.90;;;;;;5042454;28;19909;-69
2023/03/14 03:14:40;;;;;;;;;;;24.10;99.90;;;;;;5039830;28;19928;-70
2023/03/14 03:17:07;;;;;;;;;;;24.40;99.90;;;;;;5042084;28;19923;-69
2023/03/14 03:19:34;;;;;;;;;;;24.90;99.90;;;;;;5040897;28;19909;-71
2023/03/14 03:22:01;;;;;;;;;;;25.20;99.90;;;;;;5041074;28;19971;-69
2023/03/14 03:24:28;;;;;;;;;;;25.20;99.90;;;;;;5039094;28;20322;-71
2023/03/14 03:26:54;;;;;;;;;;;25.10;99.90;;;;;;5039933;28;19952;-69
2023/03/14 03:29:21;;;;;;;;;;;25.00;99.90;;;;;;5041642;28;19959;-72
2023/03/14 03:31:48;;;;;;;;;;;24.80;99.90;;;;;;5039622;28;19982;-69
2023/03/14 03:34:15;;;;;;;;;;;24.60;99.90;;;;;;5041377;28;20328;-71
2023/03/14 03:36:41;;;;;;;;;;;24.20;99.90;;;;;;5039306;28;19935;-70
2023/03/14 03:39:08;;;;;;;;;;;24.00;99.90;;;;;;5041410;28;19917;-68
2023/03/14 03:41:35;;;;;;;;;;;23.80;99.90;;;;;;5040106;28;20396;-69
2023/03/14 03:44:01;;;;;;;;;;;23.60;99.90;;;;;;5040520;28;20384;-70
2023/03/14 03:46:28;;;;;;;;;;;23.40;99.90;;;;;;5039517;28;19920;-69
2023/03/14 03:48:58;;;;;;;;;;;23.40;99.90;;;;;;5039918;28;19917;-68
2023/03/14 03:51:25;;;;;;;;;;;23.30;99.90;;;;;;5041400;28;20000;-73
2023/03/14 03:53:52;;;;;;;;;;;23.20;99.90;;;;;;5038267;28;19979;-68
2023/03/14 03:56:18;;;;;;;;;;;23.20;99.90;;;;;;5036626;28;19963;-69
2023/03/14 03:58:45;;;;;;;;;;;23.10;99.90;;;;;;5037116;28;19913;-70
2023/03/14 04:01:12;;;;;;;;;;;23.20;99.90;;;;;;5040883;28;19913;-70
2023/03/14 04:03:38;;;;;;;;;;;23.20;99.90;;;;;;5040265;28;20013;-70
2023/03/14 04:06:06;;;;;;;;;;;23.20;99.90;;;;;;5038026;28;19915;-70
2023/03/14 04:08:33;;;;;;;;;;;23.10;99.90;;;;;;5040512;28;20076;-70
2023/03/14 04:11:00;;;;;;;;;;;23.20;99.90;;;;;;5038026;28;20869;-69
2023/03/14 04:13:28;;;;;;;;;;;23.10;99.90;;;;;;5040249;28;19913;-69
2023/03/14 04:15:55;;;;;;;;;;;23.30;99.90;;;;;;5039044;28;19917;-69
2023/03/14 04:18:24;;;;;;;;;;;23.40;99.90;;;;;;5041059;28;20380;-69
2023/03/14 04:20:51;;;;;;;;;;;23.30;99.90;;;;;;5037963;28;19909;-68
2023/03/14 04:23:18;;;;;;;;;;;23.30;99.90;;;;;;5040152;28;19939;-70
2023/03/14 04:25:45;;;;;;;;;;;23.30;99.90;;;;;;5039250;28;19913;-75
2023/03/14 04:28:11;;;;;;;;;;;23.40;99.90;;;;;;5039692;28;19912;-70
2023/03/14 04:30:38;;;;;;;;;;;23.40;99.90;;;;;;5040001;28;19935;-72
2023/03/14 04:33:04;;;;;;;;;;;23.50;99.90;;;;;;5038657;28;20048;-70
2023/03/14 04:35:31;;;;;;;;;;;23.70;99.90;;;;;;5045179;28;19936;-71
2023/03/14 04:37:59;;;;;;;;;;;23.70;99.90;;;;;;5038059;28;19913;-75
2023/03/14 04:40:25;;;;;;;;;;;23.80;99.90;;;;;;5038525;28;19925;-70
2023/03/14 04:42:52;;;;;;;;;;;23.90;99.90;;;;;;5036519;28;20051;-67
2023/03/14 04:45:19;;;;;;;;;;;24.20;99.90;;;;;;5036076;28;19968;-75
2023/03/14 04:47:45;;;;;;;;;;;24.20;99.90;;;;;;5037526;28;20007;-67
2023/03/14 04:50:12;;;;;;;;;;;24.40;99.90;;;;;;5038051;28;20340;-66
2023/03/14 04:52:39;;;;;;;;;;;24.50;99.90;;;;;;5035787;28;19956;-69
2023/03/14 04:55:05;;;;;;;;;;;24.60;99.90;;;;;;5035303;28;19952;-72
2023/03/14 04:57:32;;;;;;;;;;;24.80;99.90;;;;;;5038592;28;19991;-73
2023/03/14 04:59:59;;;;;;;;;;;24.90;99.90;;;;;;5037043;28;20361;-72
2023/03/14 05:02:25;;;;;;;;;;;25.10;99.90;;;;;;5039016;28;19962;-68
2023/03/14 05:04:52;;;;;;;;;;;25.30;99.90;;;;;;5039049;28;19919;-69
2023/03/14 05:07:19;;;;;;;;;;;25.70;99.90;;;;;;5040512;28;19908;-68
2023/03/14 05:09:45;;;;;;;;;;;25.90;99.90;;;;;;5058736;28;19955;-68
2023/03/14 05:12:12;;;;;;;;;;;25.70;99.90;;;;;;5041863;28;19916;-69
2023/03/14 05:14:39;;;;;;;;;;;25.90;99.90;;;;;;5044000;28;19916;-69
2023/03/14 05:17:05;;;;;;;;;;;26.20;99.90;;;;;;5035652;28;19920;-69
2023/03/14 05:19:32;;;;;;;;;;;26.20;99.90;;;;;;5043414;28;19909;-69
2023/03/14 05:21:59;;;;;;;;;;;26.30;99.90;;;;;;5041320;28;20734;-68
2023/03/14 05:24:25;;;;;;;;;;;26.40;99.90;;;;;;5044163;28;19920;-68
2023/03/14 05:26:52;;;;;;;;;;;26.50;99.90;;;;;;5043214;28;19909;-67
2023/03/14 05:29:18;;;;;;;;;;;26.30;99.90;;;;;;5041799;28;19916;-72
2023/03/14 05:31:45;;;;;;;;;;;26.40;99.90;;;;;;5043165;28;19936;-69
2023/03/14 05:34:12;;;;;;;;;;;26.30;99.90;;;;;;5041619;28;20080;-69
2023/03/14 05:36:38;;;;;;;;;;;26.40;99.90;;;;;;5043305;28;19920;-68
2023/03/14 05:39:05;;;;;;;;;;;26.50;99.90;;;;;;5041224;28;19951;-69
2023/03/14 05:41:32;;;;;;;;;;;26.30;99.90;;;;;;5043296;28;20277;-68
2023/03/14 05:43:58;;;;;;;;;;;26.80;99.90;;;;;;5042372;28;19909;-69
2023/03/14 05:46:25;;;;;;;;;;;27.60;99.90;;;;;;5042472;28;19913;-69
2023/03/14 05:48:52;;;;;;;;;;;28.00;99.90;;;;;;5039942;28;20004;-68
2023/03/14 05:51:18;;;;;;;;;;;28.30;99.90;;;;;;5041220;28;20391;-70
2023/03/14 05:53:45;;;;;;;;;;;28.30;99.90;;;;;;5042872;28;19908;-67
2023/03/14 05:56:11;;;;;;;;;;;28.20;99.90;;;;;;5040637;28;19920;-68
2023/03/14 05:58:38;;;;;;;;;;;28.10;99.90;;;;;;5044220;28;19916;-66
2023/03/14 06:01:05;;;;;;;;;;;27.70;99.90;;;;;;5042492;28;20384;-66
2023/03/14 06:03:32;;;;;;;;;;;27.60;99.90;;;;;;5044343;28;19959;-67
2023/03/14 06:05:59;;;;;;;;;;;27.30;99.90;;;;;;5039350;28;19956;-71
2023/03/14 06:08:26;;;;;;;;;;;27.30;99.90;;;;;;5042283;28;19913;-69
2023/03/14 06:10:53;;;;;;;;;;;27.30;99.90;;;;;;5042071;28;19952;-67
2023/03/14 06:13:19;;;;;;;;;;;27.60;99.90;;;;;;5039283;28;19909;-68
2023/03/14 06:15:46;;;;;;;;;;;28.30;99.90;;;;;;5039930;28;20012;-69
2023/03/14 06:18:13;;;;;;;;;;;28.70;99.90;;;;;;5037976;28;19913;-67
2023/03/14 06:20:40;;;;;;;;;;;28.60;99.90;;;;;;5041769;28;19908;-68
2023/03/14 06:23:07;;;;;;;;;;;28.30;99.90;;;;;;5041229;28;19920;-68
2023/03/14 06:25:34;;;;;;;;;;;28.00;99.90;;;;;;5042835;28;20022;-71
2023/03/14 06:28:01;;;;;;;;;;;27.70;99.90;;;;;;5042375;28;19967;-68
2023/03/14 06:30:28;;;;;;;;;;;27.30;99.90;;;;;;5042390;28;19909;-70
2023/03/14 06:32:55;;;;;;;;;;;27.10;99.90;;;;;;5043332;28;20001;-72
2023/03/14 06:35:22;;;;;;;;;;;27.10;99.90;;;;;;5041270;28;19921;-68
2023/03/14 06:37:49;;;;;;;;;;;27.10;99.90;;;;;;5043376;28;19919;-71
2023/03/14 06:40:17;;;;;;;;;;;27.00;99.90;;;;;;5040955;28;19921;-68
2023/03/14 06:42:44;;;;;;;;;;;27.00;99.90;;;;;;5042790;28;19982;-67
2023/03/14 06:45:11;;;;;;;;;;;26.80;99.90;;;;;;5040767;28;19913;-68
2023/03/14 06:47:38;;;;;;;;;;;26.90;99.90;;;;;;5042615;28;19916;-68
2023/03/14 06:50:05;;;;;;;;;;;26.90;99.90;;;;;;5042702;28;19913;-69
2023/03/14 06:52:32;;;;;;;;;;;27.00;99.90;;;;;;5041753;28;19912;-67
2023/03/14 06:54:59;;;;;;;;;;;27.30;99.90;;;;;;5042308;28;19939;-68
2023/03/14 06:57:25;;;;;;;;;;;27.70;99.90;;;;;;5041133;28;19915;-67
2023/03/14 06:59:52;;;;;;;;;;;27.80;99.90;;;;;;5043058;28;19992;-68
2023/03/14 07:02:19;;;;;;;;;;;28.00;99.90;;;;;;5040361;28;19917;-68
2023/03/14 07:04:45;;;;;;;;;;;28.20;99.90;;;;;;5041794;28;19913;-69
2023/03/14 07:07:12;;;;;;;;;;;28.30;99.90;;;;;;5041077;28;19909;-69
2023/03/14 07:09:38;;;;;;;;;;;27.90;99.90;;;;;;5041125;28;20414;-69
2023/03/14 07:12:05;;;;;;;;;;;27.60;99.90;;;;;;5041905;28;19935;-69
2023/03/14 07:14:32;;;;;;;;;;;27.40;99.90;;;;;;5039783;28;19948;-68
2023/03/14 07:16:59;;;;;;;;;;;26.90;99.90;;;;;;5073979;28;20393;-70
2023/03/14 07:19:25;;;;;;;;;;;26.50;99.90;;;;;;5040885;28;19908;-68
2023/03/14 07:21:52;;;;;;;;;;;26.10;99.90;;;;;;5042514;28;20007;-68
2023/03/14 07:24:19;;;;;;;;;;;25.80;99.90;;;;;;5039250;28;20354;-72
2023/03/14 07:26:45;;;;;;;;;;;25.50;99.90;;;;;;5041751;28;19909;-66
2023/03/14 07:29:12;;;;;;;;;;;25.30;99.90;;;;;;5041545;28;20030;-69
2023/03/14 07:31:40;;;;;;;;;;;25.00;99.90;;;;;;5039636;28;20524;-67
2023/03/14 07:34:07;;;;;;;;;;;24.80;99.90;;;;;;5041779;28;20756;-67
2023/03/14 07:36:33;;;;;;;;;;;24.50;99.90;;;;;;5040015;28;19959;-68
2023/03/14 07:39:00;;;;;;;;;;;24.30;99.90;;;;;;5038833;28;19963;-67
2023/03/14 07:41:27;;;;;;;;;;;23.80;99.90;;;;;;5032761;28;20336;-71
2023/03/14 07:43:53;;;;;;;;;;;23.50;99.90;;;;;;5041336;28;19908;-68
2023/03/14 07:46:20;;;;;;;;;;;23.30;99.90;;;;;;5040568;28;20716;-69
2023/03/14 07:48:47;;;;;;;;;;;23.00;99.90;;;;;;5042012;28;20300;-69
2023/03/14 07:51:13;;;;;;;;;;;22.80;99.90;;;;;;5041221;28;19912;-68
2023/03/14 07:53:40;;;;;;;;;;;22.60;99.90;;;;;;5040187;28;19909;-68
2023/03/14 07:56:07;;;;;;;;;;;22.30;99.90;;;;;;5042086;28;19916;-69
2023/03/14 07:58:35;;;;;;;;;;;22.20;99.90;;;;;;5039371;28;20281;-68
2023/03/14 08:01:01;;;;;;;;;;;22.10;99.90;;;;;;5041307;28;19913;-67
2023/03/14 08:03:28;;;;;;;;;;;22.10;99.90;;;;;;5039415;28;19909;-68
2023/03/14 08:05:55;;;;;;;;;;;22.10;99.90;;;;;;5041347;28;20350;-69
2023/03/14 08:08:21;;;;;;;;;;;22.10;99.90;;;;;;5036680;28;20586;-68
2023/03/14 08:10:48;;;;;;;;;;;22.10;99.90;;;;;;5040101;28;19912;-69
2023/03/14 08:13:15;;;;;;;;;;;22.00;99.90;;;;;;5041636;28;20369;-67
2023/03/14 08:15:41;;;;;;;;;;;21.90;99.90;;;;;;5039600;28;19924;-68
2023/03/14 08:18:08;;;;;;;;;;;22.00;99.90;;;;;;5041830;28;19909;-67
2023/03/14 08:20:35;;;;;;;;;;;22.00;99.90;;;;;;5040033;28;20420;-67
2023/03/14 08:23:02;;;;;;;;;;;21.90;99.90;;;;;;5041963;28;20400;-67
2023/03/14 08:25:29;;;;;;;;;;;21.90;99.90;;;;;;5039664;28;19954;-68
2023/03/14 08:27:56;;;;;;;;;;;21.80;99.90;;;;;;5041957;28;19916;-67
2023/03/14 08:30:23;;;;;;;;;;;21.80;99.90;;;;;;5041412;28;19909;-68
2023/03/14 08:32:50;;;;;;;;;;;21.90;99.90;;;;;;5040104;28;19920;-67
2023/03/14 08:35:16;;;;;;;;;;;21.90;99.90;;;;;;5041928;28;20007;-67
2023/03/14 08:37:43;;;;;;;;;;;21.90;99.90;;;;;;5038187;28;19966;-66
2023/03/14 08:40:11;;;;;;;;;;;21.90;99.90;;;;;;5041794;28;19921;-67
2023/03/14 08:42:38;;;;;;;;;;;21.90;99.90;;;;;;5041399;28;19913;-67
2023/03/14 08:45:06;;;;;;;;;;;21.90;99.90;;;;;;5045808;28;20011;-67
2023/03/14 08:47:33;;;;;;;;;;;21.80;99.90;;;;;;5043598;28;19909;-68
2023/03/14 08:49:59;;;;;;;;;;;21.90;99.90;;;;;;5040190;28;20393;-68
2023/03/14 08:52:26;;;;;;;;;;;21.90;99.90;;;;;;5044745;28;19916;-67
2023/03/14 08:54:52;;;;;;;;;;;22.00;99.90;;;;;;5037225;28;19924;-71
2023/03/14 08:57:21;;;;;;;;;;;21.90;99.90;;;;;;5035089;28;20424;-69
2023/03/14 08:59:48;;;;;;;;;;;21.80;99.90;;;;;;5026019;28;20008;-68
2023/03/14 09:02:14;;;;;;;;;;;21.80;99.90;;;;;;5029976;28;20004;-68
2023/03/14 09:04:41;;;;;;;;;;;21.70;99.90;;;;;;5031458;28;19995;-69
2023/03/14 09:07:08;;;;;;;;;;;21.70;99.90;;;;;;5039133;28;19912;-68
2023/03/14 09:09:34;;;;;;;;;;;21.70;99.90;;;;;;5037522;28;19924;-68
2023/03/14 09:12:01;;;;;;;;;;;21.70;99.90;;;;;;5040380;28;19923;-69
2023/03/14 09:14:28;;;;;;;;;;;21.70;99.90;;;;;;5039568;28;19921;-71
2023/03/14 09:16:55;;;;;;;;;;;21.80;99.90;;;;;;5039048;28;19951;-71
2023/03/14 09:19:21;;;;;;;;;;;21.80;99.90;;;;;;5041533;28;19917;-69
2023/03/14 09:21:48;;;;;;;;;;;21.80;99.90;;;;;;5040187;28;20752;-66
2023/03/14 09:24:15;;;;;;;;;;;21.80;99.90;;;;;;5042768;28;19913;-67
2023/03/14 09:26:42;;;;;;;;;;;21.80;99.90;;;;;;5039796;28;19971;-67
2023/03/14 09:29:08;;;;;;;;;;;21.80;99.90;;;;;;5038839;28;19912;-69
2023/03/14 09:31:35;;;;;;;;;;;21.80;99.90;;;;;;5033670;28;20024;-69
2023/03/14 09:34:02;;;;;;;;;;;21.80;99.90;;;;;;5041689;28;19909;-68
2023/03/14 09:36:28;;;;;;;;;;;21.80;99.90;;;;;;5042582;28;19952;-68
2023/03/14 09:38:55;;;;;;;;;;;21.80;99.90;;;;;;5040086;28;19978;-67
2023/03/14 09:41:25;;;;;;;;;;;21.80;99.90;;;;;;5043076;28;19916;-68
2023/03/14 09:44:00;;;;;;;;;;;21.80;99.90;;;;;;5039315;28;20349;-69
2023/03/14 09:46:27;;;;;;;;;;;21.80;99.90;;;;;;5039919;28;20353;-67
2023/03/14 09:48:54;;;;;;;;;;;21.80;99.90;;;;;;5040311;28;19967;-67
2023/03/14 09:51:23;;;;;;;;;;;21.70;99.90;;;;;;5042962;28;19913;-67
2023/03/14 09:53:51;;;;;;;;;;;21.70;99.90;;;;;;5039354;28;19923;-68
2023/03/14 09:56:21;;;;;;;;;;;21.70;99.90;;;;;;5042467;28;20270;-66
2023/03/14 09:58:58;;;;;;;;;;;21.70;99.90;;;;;;5040523;28;19909;-66
2023/03/14 10:01:26;;;;;;;;;;;21.70;99.90;;;;;;5044032;28;19912;-67
2023/03/14 10:03:57;;;;;;;;;;;21.70;99.90;;;;;;5041654;28;19912;-67
2023/03/14 10:06:26;;;;;;;;;;;21.70;99.90;;;;;;5043564;28;20365;-67
2023/03/14 10:08:54;;;;;;;;;;;21.70;99.90;;;;;;5041589;28;20562;-69
2023/03/14 10:11:20;;;;;;;;;;;21.60;99.90;;;;;;5042449;28;20007;-70
2023/03/14 10:14:12;;;;;;;;;;;21.70;99.90;;;;;;5041502;28;19908;-67
2023/03/14 10:16:46;;;;;;;;;;;21.70;99.90;;;;;;5027287;28;19928;-66
2023/03/14 10:19:14;;;;;;;;;;;21.60;99.90;;;;;;5041800;28;19956;-67
2023/03/14 10:21:42;;;;;;;;;;;21.60;99.90;;;;;;5042524;28;19909;-68
2023/03/14 10:24:18;;;;;;;;;;;21.60;99.90;;;;;;5041934;28;19920;-70
2023/03/14 10:26:48;;;;;;;;;;;21.60;99.90;;;;;;5021640;28;19909;-67
2023/03/14 10:29:16;;;;;;;;;;;21.60;99.90;;;;;;5023347;28;19917;-68
2023/03/14 10:31:48;;;;;;;;;;;21.70;99.90;;;;;;5022738;28;19909;-68
2023/03/14 10:34:17;;;;;;;;;;;21.60;99.90;;;;;;5022788;28;20325;-69
2023/03/14 10:36:43;;;;;;;;;;;21.70;99.90;;;;;;5025895;28;19917;-67
2023/03/14 10:39:25;;;;;;;;;;;21.60;99.90;;;;;;5038797;28;20054;-66
2023/03/14 10:41:53;;;;;;;;;;;21.70;99.90;;;;;;5038075;28;20022;-72
2023/03/14 10:44:25;;;;;;;;;;;21.70;99.90;;;;;;5041072;28;19940;-66
2023/03/14 10:47:02;;;;;;;;;;;21.70;99.90;;;;;;5040312;28;19909;-65
2023/03/14 10:49:34;;;;;;;;;;;21.60;99.90;;;;;;5043383;28;19908;-66
2023/03/14 10:52:22;;;;;;;;;;;21.60;99.90;;;;;;5041598;28;19909;-67
2023/03/14 10:55:09;;;;;;;;;;;21.60;99.90;;;;;;5041214;28;20373;-68
2023/03/14 10:57:40;;;;;;;;;;;21.60;99.90;;;;;;5042920;28;19909;-68
2023/03/14 11:00:11;;;;;;;;;;;21.60;99.90;;;;;;5040469;28;19938;-67
2023/03/14 11:02:44;;;;;;;;;;;21.60;99.90;;;;;;5043108;28;19955;-69
2023/03/14 11:05:33;;;;;;;;;;;21.60;99.90;;;;;;5040597;28;19915;-68
2023/03/14 11:08:08;;;;;;;;;;;21.60;99.90;;;;;;5042764;28;19965;-66
2023/03/14 11:10:42;;;;;;;;;;;21.60;99.90;;;;;;5043269;28;19909;-69
2023/03/14 11:13:15;;;;;;;;;;;21.60;99.90;;;;;;5040514;28;19947;-68
2023/03/14 11:15:49;;;;;;;;;;;21.50;99.90;;;;;;5042628;28;19925;-67
2023/03/14 11:18:18;;;;;;;;;;;21.50;99.90;;;;;;5041295;28;19989;-64
2023/03/14 11:21:00;;;;;;;;;;;21.50;99.90;;;;;;5042558;28;20065;-65
2023/03/14 11:23:42;;;;;;;;;;;21.50;99.90;;;;;;5042625;28;19931;-66
2023/03/14 11:26:18;;;;;;;;;;;21.50;99.90;;;;;;5039816;28;19916;-69
2023/03/14 11:28:49;;;;;;;;;;;21.40;99.90;;;;;;5042574;28;19919;-65
2023/03/14 11:31:15;;;;;;;;;;;21.50;99.90;;;;;;5041008;28;20285;-66
2023/03/14 11:34:02;;;;;;;;;;;21.50;99.90;;;;;;5042262;28;19938;-65
2023/03/14 11:36:36;;;;;;;;;;;21.50;99.90;;;;;;5020835;28;20329;-66
2023/03/14 11:39:04;;;;;;;;;;;21.50;99.90;;;;;;5020494;28;20336;-68
2023/03/14 11:41:38;;;;;;;;;;;21.50;99.90;;;;;;5022407;28;19913;-67
2023/03/14 11:44:10;;;;;;;;;;;21.50;99.90;;;;;;5020344;28;19947;-66
2023/03/14 11:46:39;;;;;;;;;;;21.50;99.90;;;;;;5041005;28;19913;-66
2023/03/14 11:49:06;;;;;;;;;;;21.50;99.90;;;;;;5040228;28;20065;-69
2023/03/14 11:51:37;;;;;;;;;;;21.50;99.90;;;;;;5042331;28;19985;-66
2023/03/14 11:54:06;;;;;;;;;;;21.50;99.90;;;;;;5039433;28;19913;-66
2023/03/14 11:56:48;;;;;;;;;;;21.50;99.90;;;;;;5041802;28;19927;-66
2023/03/14 11:59:18;;;;;;;;;;;21.40;99.90;;;;;;5039284;28;20013;-67
2023/03/14 12:01:50;;;;;;;;;;;21.50;99.90;;;;;;5041947;28;19909;-67
2023/03/14 12:04:25;;;;;;;;;;;21.50;99.90;;;;;;5039657;28;20377;-66
2023/03/14 12:06:52;;;;;;;;;;;21.40;99.90;;;;;;5041928;28;20357;-66
2023/03/14 12:09:20;;;;;;;;;;;21.40;99.90;;;;;;5038535;28;19971;-66
2023/03/14 12:11:59;;;;;;;;;;;21.40;99.90;;;;;;5040380;28;19939;-66
2023/03/14 12:14:29;;;;;;;;;;;21.40;99.90;;;;;;5039825;28;19917;-67
2023/03/14 12:16:58;;;;;;;;;;;21.40;99.90;;;;;;5040857;28;19917;-66
2023/03/14 12:19:24;;;;;;;;;;;21.40;99.90;;;;;;5041472;28;19931;-66
2023/03/14 12:21:54;;;;;;;;;;;21.40;99.90;;;;;;5044042;28;19916;-67
2023/03/14 12:24:25;;;;;;;;;;;21.40;99.90;;;;;;5042283;28;19912;-67
2023/03/14 12:26:53;;;;;;;;;;;21.40;99.90;;;;;;5045873;28;20305;-66
2023/03/14 12:29:20;;;;;;;;;;;21.40;99.90;;;;;;5043670;28;20265;-67
2023/03/14 12:31:48;;;;;;;;;;;21.40;99.90;;;;;;5046356;28;19909;-67
2023/03/14 12:34:15;;;;;;;;;;;21.40;99.90;;;;;;5042224;28;20400;-68
2023/03/14 12:36:50;;;;;;;;;;;21.40;99.90;;;;;;5045196;28;19919;-67
2023/03/14 12:39:40;;;;;;;;;;;21.40;99.90;;;;;;5043639;28;19935;-67
2023/03/14 12:42:15;;;;;;;;;;;21.40;99.90;;;;;;5044645;28;19913;-67
2023/03/14 12:44:44;;;;;;;;;;;21.30;99.90;;;;;;5045066;28;19909;-67
2023/03/14 12:47:19;;;;;;;;;;;21.30;99.90;;;;;;5042990;28;19940;-68
2023/03/14 12:49:47;;;;;;;;;;;21.30;99.90;;;;;;5045693;28;19908;-67
2023/03/14 12:52:15;;;;;;;;;;;21.30;99.90;;;;;;5043159;28;19908;-67
2023/03/14 12:55:00;;;;;;;;;;;21.20;99.90;;;;;;5045292;28;20016;-66
2023/03/14 12:57:32;;;;;;;;;;;21.30;99.90;;;;;;5043559;28;19919;-66
2023/03/14 13:00:00;;;;;;;;;;;21.20;99.90;;;;;;5045286;28;19948;-67
2023/03/14 13:02:37;;;;;;;;;;;21.30;99.90;;;;;;5043024;28;19956;-66
2023/03/14 13:05:15;;;;;;;;;;;21.20;99.90;;;;;;5045303;28;19913;-66
2023/03/14 13:07:44;;;;;;;;;;;21.20;99.90;;;;;;5043653;28;20403;-66
2023/03/14 13:10:11;;;;;;;;;;;21.20;99.90;;;;;;5043581;28;19967;-66
2023/03/14 13:12:47;;;;;;;;;;;21.20;99.90;;;;;;5045055;28;19909;-66
2023/03/14 13:15:17;;;;;;;;;;;21.10;99.90;;;;;;5042893;28;20011;-66
2023/03/14 13:17:44;;;;;;;;;;;21.10;99.90;;;;;;5045241;28;19909;-67
2023/03/14 13:20:31;;;;;;;;;;;21.10;99.90;;;;;;5044400;28;19916;-67
2023/03/14 13:22:57;;;;;;;;;;;21.10;99.90;;;;;;5045159;28;19920;-67
2023/03/14 13:25:24;;;;;;;;;;;21.10;99.90;;;;;;5042574;28;19913;-67
2023/03/14 13:27:53;;;;;;;;;;;21.00;99.90;;;;;;5044613;28;19909;-68
2023/03/14 13:30:22;;;;;;;;;;;21.00;99.90;;;;;;5041327;28;19932;-66
2023/03/14 13:32:49;;;;;;;;;;;21.00;99.90;;;;;;5044235;28;19920;-67
2023/03/14 13:35:30;;;;;;;;;;;21.00;99.90;;;;;;5043184;28;19924;-67
2023/03/14 13:38:01;;;;;;;;;;;21.00;99.90;;;;;;5044315;28;20372;-67
2023/03/14 13:40:34;;;;;;;;;;;20.90;99.90;;;;;;5042896;28;20007;-68
2023/03/14 13:43:33;;;;;;;;;;;21.00;99.90;;;;;;5044591;28;20078;-67
2023/03/14 13:46:03;;;;;;;;;;;21.00;99.90;;;;;;5042688;28;19983;-67
2023/03/14 13:48:31;;;;;;;;;;;21.00;99.90;;;;;;5042294;28;19940;-67
2023/03/14 13:51:18;;;;;;;;;;;21.00;99.90;;;;;;5044491;28;20259;-67
2023/03/14 13:53:51;;;;;;;;;;;21.00;99.90;;;;;;5043762;28;19909;-69
2023/03/14 13:56:19;;;;;;;;;;;21.00;99.90;;;;;;5043321;28;19917;-67
2023/03/14 13:58:46;;;;;;;;;;;21.00;99.90;;;;;;5044046;28;20007;-67
2023/03/14 14:01:14;;;;;;;;;;;21.00;99.90;;;;;;5044373;28;19920;-67
2023/03/14 14:03:42;;;;;;;;;;;20.90;99.90;;;;;;5042978;28;20612;-66
2023/03/14 14:06:11;;;;;;;;;;;20.90;99.90;;;;;;5043688;28;19955;-66
2023/03/14 14:08:40;;;;;;;;;;;20.90;99.90;;;;;;5041951;28;20163;-67
2023/03/14 14:11:07;;;;;;;;;;;21.00;99.90;;;;;;5044054;28;20050;-67
2023/03/14 14:13:35;;;;;;;;;;;20.90;99.90;;;;;;5042163;28;19965;-67
2023/03/14 14:16:03;;;;;;;;;;;20.90;99.90;;;;;;5043969;28;20340;-67
2023/03/14 14:18:30;;;;;;;;;;;20.90;99.90;;;;;;5042159;28;19916;-66
2023/03/14 14:20:57;;;;;;;;;;;20.80;99.90;;;;;;5043614;28;20209;-66
2023/03/14 14:23:28;;;;;;;;;;;20.90;99.90;;;;;;5042111;28;19943;-66
2023/03/14 14:25:59;;;;;;;;;;;20.90;99.90;;;;;;5042923;28;20405;-67